sensor_id;sensor_type;location;lat;lon;timestamp;pressure;altitude;pressure_sealevel;temperature;humidity
62926;BME280;55732;52.248;-0.844;2023-04-03T00:02:08;102340.40;;;2.80;76.32
62926;BME280;55732;52.248;-0.844;2023-04-03T00:04:34;102337.61;;;2.77;76.48
62926;BME280;55732;52.248;-0.844;2023-04-03T00:07:00;102336.65;;;2.76;76.62
62926;BME280;55732;52.248;-0.844;2023-04-03T00:09:25;102341.61;;;2.74;76.74
62926;BME280;55732;52.248;-0.844;2023-04-03T00:11:51;102344.98;;;2.73;76.64
62926;BME280;55732;52.248;-0.844;2023-04-03T00:14:16;102353.63;;;2.69;76.50
62926;BME280;55732;52.248;-0.844;2023-04-03T00:16:41;102345.55;;;2.65;76.64
62926;BME280;55732;52.248;-0.844;2023-04-03T00:19:07;102337.82;;;2.63;76.86
62926;BME280;55732;52.248;-0.844;2023-04-03T00:21:33;102338.89;;;2.61;76.95
62926;BME280;55732;52.248;-0.844;2023-04-03T00:23:58;102335.65;;;2.59;77.03
62926;BME280;55732;52.248;-0.844;2023-04-03T00:26:24;102338.63;;;2.56;77.03
62926;BME280;55732;52.248;-0.844;2023-04-03T00:28:51;102340.82;;;2.55;77.21
62926;BME280;55732;52.248;-0.844;2023-04-03T00:31:17;102326.66;;;2.54;77.24
62926;BME280;55732;52.248;-0.844;2023-04-03T00:33:42;102330.02;;;2.52;77.32
62926;BME280;55732;52.248;-0.844;2023-04-03T00:36:09;102329.59;;;2.50;77.48
62926;BME280;55732;52.248;-0.844;2023-04-03T00:38:35;102325.33;;;2.49;77.51
62926;BME280;55732;52.248;-0.844;2023-04-03T00:41:01;102322.73;;;2.46;77.66
62926;BME280;55732;52.248;-0.844;2023-04-03T00:43:27;102324.38;;;2.45;77.71
62926;BME280;55732;52.248;-0.844;2023-04-03T00:45:56;102326.30;;;2.42;77.72
62926;BME280;55732;52.248;-0.844;2023-04-03T00:48:27;102319.33;;;2.36;77.86
62926;BME280;55732;52.248;-0.844;2023-04-03T00:50:55;102325.45;;;2.37;77.94
62926;BME280;55732;52.248;-0.844;2023-04-03T00:53:28;102330.14;;;2.34;78.01
62926;BME280;55732;52.248;-0.844;2023-04-03T00:55:55;102332.27;;;2.32;78.15
62926;BME280;55732;52.248;-0.844;2023-04-03T00:58:25;102335.20;;;2.31;78.23
62926;BME280;55732;52.248;-0.844;2023-04-03T01:00:55;102329.98;;;2.31;78.20
62926;BME280;55732;52.248;-0.844;2023-04-03T01:03:23;102328.08;;;2.31;78.15
62926;BME280;55732;52.248;-0.844;2023-04-03T01:05:49;102337.41;;;2.30;78.10
62926;BME280;55732;52.248;-0.844;2023-04-03T01:08:15;102334.92;;;2.30;78.26
62926;BME280;55732;52.248;-0.844;2023-04-03T01:10:41;102338.30;;;2.28;78.26
62926;BME280;55732;52.248;-0.844;2023-04-03T01:13:24;102333.35;;;2.27;78.37
62926;BME280;55732;52.248;-0.844;2023-04-03T01:15:50;102326.66;;;2.25;78.28
62926;BME280;55732;52.248;-0.844;2023-04-03T01:18:15;102326.10;;;2.24;78.33
62926;BME280;55732;52.248;-0.844;2023-04-03T01:26:34;102326.64;;;2.22;78.61
62926;BME280;55732;52.248;-0.844;2023-04-03T01:29:01;102324.31;;;2.21;78.52
62926;BME280;55732;52.248;-0.844;2023-04-03T01:31:49;102323.00;;;2.19;78.59
62926;BME280;55732;52.248;-0.844;2023-04-03T01:34:15;102319.05;;;2.17;78.65
62926;BME280;55732;52.248;-0.844;2023-04-03T01:36:40;102320.96;;;2.14;78.57
62926;BME280;55732;52.248;-0.844;2023-04-03T01:39:06;102323.77;;;2.11;78.65
62926;BME280;55732;52.248;-0.844;2023-04-03T01:41:32;102320.35;;;2.09;78.82
62926;BME280;55732;52.248;-0.844;2023-04-03T01:43:57;102321.27;;;2.07;78.96
62926;BME280;55732;52.248;-0.844;2023-04-03T01:46:23;102318.52;;;2.05;78.87
62926;BME280;55732;52.248;-0.844;2023-04-03T01:48:49;102324.75;;;2.05;78.91
62926;BME280;55732;52.248;-0.844;2023-04-03T01:51:15;102322.88;;;2.03;78.98
62926;BME280;55732;52.248;-0.844;2023-04-03T01:53:41;102323.67;;;2.02;79.19
62926;BME280;55732;52.248;-0.844;2023-04-03T01:56:07;102323.92;;;2.00;79.21
62926;BME280;55732;52.248;-0.844;2023-04-03T01:58:32;102320.70;;;1.98;79.35
62926;BME280;55732;52.248;-0.844;2023-04-03T02:00:57;102318.90;;;1.97;79.28
62926;BME280;55732;52.248;-0.844;2023-04-03T02:03:23;102317.95;;;1.96;79.27
62926;BME280;55732;52.248;-0.844;2023-04-03T02:05:49;102320.30;;;1.95;79.37
62926;BME280;55732;52.248;-0.844;2023-04-03T02:08:15;102317.10;;;1.93;79.45
62926;BME280;55732;52.248;-0.844;2023-04-03T02:10:44;102317.38;;;1.92;79.50
62926;BME280;55732;52.248;-0.844;2023-04-03T02:13:12;102315.73;;;1.91;79.47
62926;BME280;55732;52.248;-0.844;2023-04-03T02:15:38;102315.91;;;1.88;79.49
62926;BME280;55732;52.248;-0.844;2023-04-03T02:18:04;102315.84;;;1.87;79.57
62926;BME280;55732;52.248;-0.844;2023-04-03T02:20:29;102312.10;;;1.85;79.51
62926;BME280;55732;52.248;-0.844;2023-04-03T02:22:55;102310.94;;;1.84;79.52
62926;BME280;55732;52.248;-0.844;2023-04-03T02:25:20;102305.57;;;1.81;79.63
62926;BME280;55732;52.248;-0.844;2023-04-03T02:27:47;102304.16;;;1.81;79.81
62926;BME280;55732;52.248;-0.844;2023-04-03T02:30:12;102305.02;;;1.81;79.94
62926;BME280;55732;52.248;-0.844;2023-04-03T02:32:40;102301.70;;;1.80;79.74
62926;BME280;55732;52.248;-0.844;2023-04-03T02:35:06;102300.35;;;1.78;79.76
62926;BME280;55732;52.248;-0.844;2023-04-03T02:37:32;102298.02;;;1.76;79.95
62926;BME280;55732;52.248;-0.844;2023-04-03T02:39:57;102300.31;;;1.74;79.75
62926;BME280;55732;52.248;-0.844;2023-04-03T02:42:23;102304.99;;;1.72;79.90
62926;BME280;55732;52.248;-0.844;2023-04-03T02:44:48;102300.88;;;1.70;80.09
62926;BME280;55732;52.248;-0.844;2023-04-03T02:47:13;102305.33;;;1.69;80.05
62926;BME280;55732;52.248;-0.844;2023-04-03T02:49:39;102301.40;;;1.67;80.18
62926;BME280;55732;52.248;-0.844;2023-04-03T02:52:04;102303.94;;;1.66;80.11
62926;BME280;55732;52.248;-0.844;2023-04-03T02:54:30;102297.46;;;1.65;80.25
62926;BME280;55732;52.248;-0.844;2023-04-03T02:56:56;102302.83;;;1.65;80.38
62926;BME280;55732;52.248;-0.844;2023-04-03T02:59:22;102300.52;;;1.64;80.53
62926;BME280;55732;52.248;-0.844;2023-04-03T03:01:47;102297.57;;;1.64;80.55
62926;BME280;55732;52.248;-0.844;2023-04-03T03:04:13;102298.27;;;1.64;80.48
62926;BME280;55732;52.248;-0.844;2023-04-03T03:06:38;102292.85;;;1.63;80.71
62926;BME280;55732;52.248;-0.844;2023-04-03T03:09:04;102295.23;;;1.63;80.66
62926;BME280;55732;52.248;-0.844;2023-04-03T03:11:31;102298.98;;;1.62;80.75
62926;BME280;55732;52.248;-0.844;2023-04-03T03:13:57;102294.91;;;1.61;80.70
62926;BME280;55732;52.248;-0.844;2023-04-03T03:16:23;102302.28;;;1.59;80.58
62926;BME280;55732;52.248;-0.844;2023-04-03T03:18:48;102302.89;;;1.58;80.89
62926;BME280;55732;52.248;-0.844;2023-04-03T03:21:13;102295.52;;;1.57;80.84
62926;BME280;55732;52.248;-0.844;2023-04-03T03:23:39;102295.23;;;1.55;80.86
62926;BME280;55732;52.248;-0.844;2023-04-03T03:26:07;102291.66;;;1.53;80.87
62926;BME280;55732;52.248;-0.844;2023-04-03T03:28:34;102289.70;;;1.52;81.00
62926;BME280;55732;52.248;-0.844;2023-04-03T03:31:01;102287.20;;;1.51;81.16
62926;BME280;55732;52.248;-0.844;2023-04-03T03:33:26;102291.83;;;1.50;81.08
62926;BME280;55732;52.248;-0.844;2023-04-03T03:35:54;102294.51;;;1.49;81.17
62926;BME280;55732;52.248;-0.844;2023-04-03T03:38:20;102288.70;;;1.48;81.17
62926;BME280;55732;52.248;-0.844;2023-04-03T03:40:50;102283.09;;;1.47;81.22
62926;BME280;55732;52.248;-0.844;2023-04-03T03:43:16;102286.16;;;1.45;81.21
62926;BME280;55732;52.248;-0.844;2023-04-03T03:45:42;102283.65;;;1.44;81.28
62926;BME280;55732;52.248;-0.844;2023-04-03T03:48:08;102283.75;;;1.43;81.33
62926;BME280;55732;52.248;-0.844;2023-04-03T03:50:33;102283.20;;;1.42;81.37
62926;BME280;55732;52.248;-0.844;2023-04-03T03:52:59;102283.23;;;1.43;81.43
62926;BME280;55732;52.248;-0.844;2023-04-03T03:55:26;102281.17;;;1.43;81.40
62926;BME280;55732;52.248;-0.844;2023-04-03T03:57:51;102283.03;;;1.46;81.47
62926;BME280;55732;52.248;-0.844;2023-04-03T04:00:17;102285.13;;;1.49;81.54
62926;BME280;55732;52.248;-0.844;2023-04-03T04:02:42;102286.52;;;1.51;81.54
62926;BME280;55732;52.248;-0.844;2023-04-03T04:05:08;102288.95;;;1.54;81.31
62926;BME280;55732;52.248;-0.844;2023-04-03T04:07:34;102290.33;;;1.57;81.45
62926;BME280;55732;52.248;-0.844;2023-04-03T04:09:59;102286.72;;;1.60;81.59
62926;BME280;55732;52.248;-0.844;2023-04-03T04:12:25;102285.85;;;1.63;81.48
62926;BME280;55732;52.248;-0.844;2023-04-03T04:14:50;102284.57;;;1.64;81.32
62926;BME280;55732;52.248;-0.844;2023-04-03T04:17:15;102280.52;;;1.66;81.25
62926;BME280;55732;52.248;-0.844;2023-04-03T04:19:41;102286.55;;;1.68;81.25
62926;BME280;55732;52.248;-0.844;2023-04-03T04:22:06;102282.09;;;1.69;81.11
62926;BME280;55732;52.248;-0.844;2023-04-03T04:24:32;102283.20;;;1.70;81.10
62926;BME280;55732;52.248;-0.844;2023-04-03T04:26:57;102281.95;;;1.70;81.19
62926;BME280;55732;52.248;-0.844;2023-04-03T04:29:23;102284.02;;;1.72;81.27
62926;BME280;55732;52.248;-0.844;2023-04-03T04:31:48;102284.75;;;1.75;81.38
62926;BME280;55732;52.248;-0.844;2023-04-03T04:34:14;102280.80;;;1.79;81.31
62926;BME280;55732;52.248;-0.844;2023-04-03T04:36:39;102278.91;;;1.83;81.40
62926;BME280;55732;52.248;-0.844;2023-04-03T04:39:05;102278.90;;;1.85;81.26
62926;BME280;55732;52.248;-0.844;2023-04-03T04:41:31;102277.05;;;1.86;81.20
62926;BME280;55732;52.248;-0.844;2023-04-03T04:43:57;102279.23;;;1.88;81.30
62926;BME280;55732;52.248;-0.844;2023-04-03T04:46:23;102279.79;;;1.91;81.36
62926;BME280;55732;52.248;-0.844;2023-04-03T04:48:48;102279.52;;;1.93;81.29
62926;BME280;55732;52.248;-0.844;2023-04-03T04:51:14;102281.96;;;1.95;81.30
62926;BME280;55732;52.248;-0.844;2023-04-03T04:53:40;102281.35;;;1.97;81.18
62926;BME280;55732;52.248;-0.844;2023-04-03T04:56:06;102279.05;;;1.99;81.27
62926;BME280;55732;52.248;-0.844;2023-04-03T04:58:31;102279.95;;;1.99;81.24
62926;BME280;55732;52.248;-0.844;2023-04-03T05:01:02;102278.09;;;2.00;81.31
62926;BME280;55732;52.248;-0.844;2023-04-03T05:03:28;102279.40;;;2.02;81.38
62926;BME280;55732;52.248;-0.844;2023-04-03T05:05:54;102276.55;;;2.04;81.58
62926;BME280;55732;52.248;-0.844;2023-04-03T05:08:19;102274.50;;;2.07;81.58
62926;BME280;55732;52.248;-0.844;2023-04-03T05:10:45;102275.36;;;2.09;81.49
62926;BME280;55732;52.248;-0.844;2023-04-03T05:13:11;102281.27;;;2.13;81.39
62926;BME280;55732;52.248;-0.844;2023-04-03T05:15:36;102280.26;;;2.16;81.40
62926;BME280;55732;52.248;-0.844;2023-04-03T05:18:02;102280.55;;;2.18;81.42
62926;BME280;55732;52.248;-0.844;2023-04-03T05:20:27;102278.08;;;2.21;81.40
62926;BME280;55732;52.248;-0.844;2023-04-03T05:22:52;102279.01;;;2.24;81.28
62926;BME280;55732;52.248;-0.844;2023-04-03T05:25:18;102276.59;;;2.25;81.16
62926;BME280;55732;52.248;-0.844;2023-04-03T05:27:43;102281.98;;;2.25;81.17
62926;BME280;55732;52.248;-0.844;2023-04-03T05:30:09;102279.16;;;2.24;81.21
62926;BME280;55732;52.248;-0.844;2023-04-03T05:32:35;102277.93;;;2.23;81.32
62926;BME280;55732;52.248;-0.844;2023-04-03T05:35:01;102279.02;;;2.25;81.48
62926;BME280;55732;52.248;-0.844;2023-04-03T05:37:26;102279.43;;;2.26;81.35
62926;BME280;55732;52.248;-0.844;2023-04-03T05:39:52;102278.79;;;2.27;81.32
62926;BME280;55732;52.248;-0.844;2023-04-03T05:42:17;102279.01;;;2.27;81.30
62926;BME280;55732;52.248;-0.844;2023-04-03T05:44:42;102283.09;;;2.29;81.48
62926;BME280;55732;52.248;-0.844;2023-04-03T05:47:08;102282.14;;;2.30;81.57
62926;BME280;55732;52.248;-0.844;2023-04-03T05:49:35;102282.30;;;2.33;81.48
62926;BME280;55732;52.248;-0.844;2023-04-03T05:52:01;102285.61;;;2.50;81.29
62926;BME280;55732;52.248;-0.844;2023-04-03T05:54:29;102285.27;;;2.90;80.93
62926;BME280;55732;52.248;-0.844;2023-04-03T05:56:54;102287.52;;;3.20;80.30
62926;BME280;55732;52.248;-0.844;2023-04-03T05:59:21;102291.80;;;3.35;79.90
62926;BME280;55732;52.248;-0.844;2023-04-03T06:01:47;102287.76;;;3.34;79.75
62926;BME280;55732;52.248;-0.844;2023-04-03T06:04:13;102283.90;;;3.30;79.49
62926;BME280;55732;52.248;-0.844;2023-04-03T06:06:51;102283.17;;;3.26;79.53
62926;BME280;55732;52.248;-0.844;2023-04-03T06:09:18;102287.48;;;3.25;79.55
62926;BME280;55732;52.248;-0.844;2023-04-03T06:11:44;102286.47;;;3.26;79.44
62926;BME280;55732;52.248;-0.844;2023-04-03T06:14:10;102286.42;;;3.25;79.47
62926;BME280;55732;52.248;-0.844;2023-04-03T06:16:36;102289.66;;;3.27;79.49
62926;BME280;55732;52.248;-0.844;2023-04-03T06:19:02;102292.11;;;3.31;79.61
62926;BME280;55732;52.248;-0.844;2023-04-03T06:21:29;102293.09;;;3.36;79.47
62926;BME280;55732;52.248;-0.844;2023-04-03T06:23:55;102291.00;;;3.42;79.28
62926;BME280;55732;52.248;-0.844;2023-04-03T06:26:20;102292.89;;;3.51;79.21
62926;BME280;55732;52.248;-0.844;2023-04-03T06:28:46;102297.05;;;3.57;79.02
62926;BME280;55732;52.248;-0.844;2023-04-03T06:31:11;102293.53;;;3.62;78.89
62926;BME280;55732;52.248;-0.844;2023-04-03T06:33:36;102299.41;;;3.69;78.82
62926;BME280;55732;52.248;-0.844;2023-04-03T06:36:05;102296.17;;;3.79;78.73
62926;BME280;55732;52.248;-0.844;2023-04-03T06:38:31;102297.26;;;3.86;78.56
62926;BME280;55732;52.248;-0.844;2023-04-03T06:40:57;102298.79;;;3.89;78.28
62926;BME280;55732;52.248;-0.844;2023-04-03T06:43:23;102297.10;;;3.93;78.51
62926;BME280;55732;52.248;-0.844;2023-04-03T06:45:49;102297.99;;;4.01;78.22
62926;BME280;55732;52.248;-0.844;2023-04-03T06:48:15;102303.05;;;4.10;78.22
62926;BME280;55732;52.248;-0.844;2023-04-03T06:50:40;102309.03;;;4.21;77.91
62926;BME280;55732;52.248;-0.844;2023-04-03T06:53:06;102302.53;;;4.37;77.80
62926;BME280;55732;52.248;-0.844;2023-04-03T06:55:32;102299.95;;;4.83;77.25
62926;BME280;55732;52.248;-0.844;2023-04-03T06:57:58;102305.05;;;4.94;76.55
62926;BME280;55732;52.248;-0.844;2023-04-03T07:00:23;102304.74;;;4.95;76.34
62926;BME280;55732;52.248;-0.844;2023-04-03T07:02:50;102308.02;;;4.94;76.25
62926;BME280;55732;52.248;-0.844;2023-04-03T07:05:17;102306.29;;;4.94;76.36
62926;BME280;55732;52.248;-0.844;2023-04-03T07:07:43;102308.79;;;4.99;76.15
62926;BME280;55732;52.248;-0.844;2023-04-03T07:10:08;102307.20;;;5.06;75.88
62926;BME280;55732;52.248;-0.844;2023-04-03T07:12:35;102307.04;;;5.10;75.71
62926;BME280;55732;52.248;-0.844;2023-04-03T07:15:00;102302.94;;;5.15;75.51
62926;BME280;55732;52.248;-0.844;2023-04-03T07:17:26;102300.63;;;5.18;75.44
62926;BME280;55732;52.248;-0.844;2023-04-03T07:19:52;102302.55;;;5.29;75.54
62926;BME280;55732;52.248;-0.844;2023-04-03T07:22:17;102297.48;;;5.55;75.16
62926;BME280;55732;52.248;-0.844;2023-04-03T07:24:43;102291.36;;;5.73;74.39
62926;BME280;55732;52.248;-0.844;2023-04-03T07:27:09;102285.56;;;5.84;74.30
62926;BME280;55732;52.248;-0.844;2023-04-03T07:29:35;102290.17;;;5.97;74.15
62926;BME280;55732;52.248;-0.844;2023-04-03T07:32:01;102291.95;;;6.09;73.55
62926;BME280;55732;52.248;-0.844;2023-04-03T07:34:26;102295.67;;;6.10;73.02
62926;BME280;55732;52.248;-0.844;2023-04-03T07:36:52;102291.83;;;6.02;72.61
62926;BME280;55732;52.248;-0.844;2023-04-03T07:39:18;102294.53;;;6.00;72.97
62926;BME280;55732;52.248;-0.844;2023-04-03T07:41:43;102296.10;;;6.20;72.76
62926;BME280;55732;52.248;-0.844;2023-04-03T07:44:08;102298.29;;;6.33;72.73
62926;BME280;55732;52.248;-0.844;2023-04-03T07:46:35;102300.11;;;6.51;72.34
62926;BME280;55732;52.248;-0.844;2023-04-03T07:49:01;102301.85;;;6.64;72.01
62926;BME280;55732;52.248;-0.844;2023-04-03T07:51:26;102304.55;;;6.74;71.88
62926;BME280;55732;52.248;-0.844;2023-04-03T07:53:53;102301.35;;;6.89;71.65
62926;BME280;55732;52.248;-0.844;2023-04-03T07:56:19;102294.66;;;8.25;69.80
62926;BME280;55732;52.248;-0.844;2023-04-03T07:58:45;102294.16;;;8.44;68.70
62926;BME280;55732;52.248;-0.844;2023-04-03T08:01:11;102300.75;;;8.38;68.61
62926;BME280;55732;52.248;-0.844;2023-04-03T08:03:38;102291.45;;;8.23;68.74
62926;BME280;55732;52.248;-0.844;2023-04-03T08:06:05;102293.95;;;8.15;68.63
62926;BME280;55732;52.248;-0.844;2023-04-03T08:08:31;102296.15;;;8.08;68.81
62926;BME280;55732;52.248;-0.844;2023-04-03T08:10:59;102299.80;;;8.02;68.97
62926;BME280;55732;52.248;-0.844;2023-04-03T08:13:25;102299.77;;;8.01;68.62
62926;BME280;55732;52.248;-0.844;2023-04-03T08:15:50;102306.83;;;7.88;68.00
62926;BME280;55732;52.248;-0.844;2023-04-03T08:18:16;102301.10;;;7.72;68.26
62926;BME280;55732;52.248;-0.844;2023-04-03T08:20:42;102301.56;;;7.65;68.67
62926;BME280;55732;52.248;-0.844;2023-04-03T08:23:09;102303.67;;;7.70;68.05
62926;BME280;55732;52.248;-0.844;2023-04-03T08:25:41;102300.80;;;7.91;67.92
62926;BME280;55732;52.248;-0.844;2023-04-03T08:28:07;102303.58;;;8.00;67.51
62926;BME280;55732;52.248;-0.844;2023-04-03T08:30:33;102300.40;;;8.14;67.17
62926;BME280;55732;52.248;-0.844;2023-04-03T08:33:02;102296.34;;;8.32;66.65
62926;BME280;55732;52.248;-0.844;2023-04-03T08:35:28;102297.00;;;8.66;66.65
62926;BME280;55732;52.248;-0.844;2023-04-03T08:37:54;102297.73;;;8.83;65.77
62926;BME280;55732;52.248;-0.844;2023-04-03T08:40:19;102301.52;;;8.95;65.45
62926;BME280;55732;52.248;-0.844;2023-04-03T08:48:20;102300.38;;;10.85;60.90
62926;BME280;55732;52.248;-0.844;2023-04-03T08:50:54;102294.10;;;10.74;59.84
62926;BME280;55732;52.248;-0.844;2023-04-03T08:53:25;102293.88;;;10.94;59.85
62926;BME280;55732;52.248;-0.844;2023-04-03T08:55:53;102294.22;;;10.86;59.88
62926;BME280;55732;52.248;-0.844;2023-04-03T08:58:25;102288.44;;;11.17;59.56
62926;BME280;55732;52.248;-0.844;2023-04-03T09:01:01;102286.39;;;11.41;59.11
62926;BME280;55732;52.248;-0.844;2023-04-03T09:03:30;102290.65;;;11.12;59.13
62926;BME280;55732;52.248;-0.844;2023-04-03T09:06:28;102284.16;;;12.40;56.93
62926;BME280;55732;52.248;-0.844;2023-04-03T09:16:57;102282.59;;;14.28;51.42
62926;BME280;55732;52.248;-0.844;2023-04-03T09:22:41;102286.92;;;14.70;50.59
62926;BME280;55732;52.248;-0.844;2023-04-03T09:25:13;102284.57;;;15.62;49.41
62926;BME280;55732;52.248;-0.844;2023-04-03T09:27:39;102292.72;;;15.08;48.37
62926;BME280;55732;52.248;-0.844;2023-04-03T09:30:06;102292.30;;;14.41;49.38
62926;BME280;55732;52.248;-0.844;2023-04-03T09:32:35;102284.93;;;15.36;48.38
62926;BME280;55732;52.248;-0.844;2023-04-03T09:35:04;102281.58;;;15.64;48.09
62926;BME280;55732;52.248;-0.844;2023-04-03T09:37:47;102277.45;;;15.88;47.76
62926;BME280;55732;52.248;-0.844;2023-04-03T09:42:52;102276.45;;;15.12;49.26
62926;BME280;55732;52.248;-0.844;2023-04-03T09:45:33;102282.62;;;15.06;49.23
62926;BME280;55732;52.248;-0.844;2023-04-03T09:50:56;102279.98;;;14.85;48.58
62926;BME280;55732;52.248;-0.844;2023-04-03T09:53:39;102274.52;;;14.93;49.23
62926;BME280;55732;52.248;-0.844;2023-04-03T09:56:26;102276.77;;;14.67;49.02
62926;BME280;55732;52.248;-0.844;2023-04-03T10:01:36;102277.91;;;13.37;50.95
62926;BME280;55732;52.248;-0.844;2023-04-03T10:06:35;102270.27;;;15.42;48.98
62926;BME280;55732;52.248;-0.844;2023-04-03T10:09:22;102264.42;;;16.31;47.84
62926;BME280;55732;52.248;-0.844;2023-04-03T10:12:04;102265.57;;;15.60;48.04
62926;BME280;55732;52.248;-0.844;2023-04-03T10:14:37;102261.93;;;17.09;45.88
62926;BME280;55732;52.248;-0.844;2023-04-03T10:19:51;102260.70;;;18.55;40.21
62926;BME280;55732;52.248;-0.844;2023-04-03T10:27:56;102256.17;;;18.01;40.87
62926;BME280;55732;52.248;-0.844;2023-04-03T10:36:38;102257.63;;;14.15;46.04
62926;BME280;55732;52.248;-0.844;2023-04-03T10:39:39;102257.36;;;14.22;46.69
62926;BME280;55732;52.248;-0.844;2023-04-03T10:47:20;102253.41;;;13.09;48.83
62926;BME280;55732;52.248;-0.844;2023-04-03T10:52:39;102251.29;;;12.27;49.56
62926;BME280;55732;52.248;-0.844;2023-04-03T10:57:39;102249.66;;;12.23;49.76
62926;BME280;55732;52.248;-0.844;2023-04-03T11:00:16;102246.72;;;12.27;49.77
62926;BME280;55732;52.248;-0.844;2023-04-03T11:03:03;102245.53;;;12.21;49.75
62926;BME280;55732;52.248;-0.844;2023-04-03T11:05:47;102239.27;;;12.08;50.82
62926;BME280;55732;52.248;-0.844;2023-04-03T11:11:05;102240.36;;;11.74;51.44
62926;BME280;55732;52.248;-0.844;2023-04-03T11:16:24;102230.02;;;11.61;51.82
62926;BME280;55732;52.248;-0.844;2023-04-03T11:18:59;102235.61;;;11.59;51.66
62926;BME280;55732;52.248;-0.844;2023-04-03T11:21:31;102232.13;;;11.52;52.37
62926;BME280;55732;52.248;-0.844;2023-04-03T11:24:03;102227.34;;;11.67;53.12
62926;BME280;55732;52.248;-0.844;2023-04-03T11:26:37;102229.19;;;12.06;51.66
62926;BME280;55732;52.248;-0.844;2023-04-03T11:29:12;102228.89;;;12.18;50.92
62926;BME280;55732;52.248;-0.844;2023-04-03T11:34:34;102221.69;;;12.51;51.11
62926;BME280;55732;52.248;-0.844;2023-04-03T11:37:06;102219.30;;;12.88;51.11
62926;BME280;55732;52.248;-0.844;2023-04-03T11:39:38;102211.30;;;13.20;50.20
62926;BME280;55732;52.248;-0.844;2023-04-03T11:44:49;102198.17;;;13.42;49.28
62926;BME280;55732;52.248;-0.844;2023-04-03T11:47:48;102209.88;;;13.44;48.45
62926;BME280;55732;52.248;-0.844;2023-04-03T11:53:24;102199.20;;;13.04;48.77
62926;BME280;55732;52.248;-0.844;2023-04-03T11:58:17;102192.61;;;13.23;49.17
62926;BME280;55732;52.248;-0.844;2023-04-03T12:21:14;102191.32;;;11.83;51.36
62926;BME280;55732;52.248;-0.844;2023-04-03T12:27:21;102182.86;;;11.84;51.30
62926;BME280;55732;52.248;-0.844;2023-04-03T12:35:17;102175.05;;;12.62;49.55
62926;BME280;55732;52.248;-0.844;2023-04-03T12:46:19;102172.08;;;12.11;49.25
62926;BME280;55732;52.248;-0.844;2023-04-03T12:48:49;102165.20;;;12.11;49.10
62926;BME280;55732;52.248;-0.844;2023-04-03T12:51:44;102165.53;;;12.01;49.67
62926;BME280;55732;52.248;-0.844;2023-04-03T12:54:16;102163.52;;;11.88;49.61
62926;BME280;55732;52.248;-0.844;2023-04-03T12:56:43;102162.35;;;11.91;49.35
62926;BME280;55732;52.248;-0.844;2023-04-03T13:01:39;102157.39;;;12.20;49.63
62926;BME280;55732;52.248;-0.844;2023-04-03T13:04:04;102157.48;;;12.35;49.79
62926;BME280;55732;52.248;-0.844;2023-04-03T13:06:42;102151.20;;;12.51;49.24
62926;BME280;55732;52.248;-0.844;2023-04-03T13:09:22;102144.02;;;12.67;48.62
62926;BME280;55732;52.248;-0.844;2023-04-03T13:11:50;102138.06;;;12.82;48.54
62926;BME280;55732;52.248;-0.844;2023-04-03T13:14:21;102140.52;;;12.92;48.53
62926;BME280;55732;52.248;-0.844;2023-04-03T13:17:20;102145.55;;;12.99;48.36
62926;BME280;55732;52.248;-0.844;2023-04-03T13:19:45;102131.61;;;12.88;47.92
62926;BME280;55732;52.248;-0.844;2023-04-03T13:22:33;102140.75;;;12.72;47.76
62926;BME280;55732;52.248;-0.844;2023-04-03T13:25:06;102134.20;;;12.48;48.59
62926;BME280;55732;52.248;-0.844;2023-04-03T13:27:34;102128.71;;;12.47;49.10
62926;BME280;55732;52.248;-0.844;2023-04-03T13:30:03;102118.95;;;12.56;49.03
62926;BME280;55732;52.248;-0.844;2023-04-03T13:32:30;102114.22;;;12.58;49.08
62926;BME280;55732;52.248;-0.844;2023-04-03T13:34:57;102118.14;;;12.39;48.64
62926;BME280;55732;52.248;-0.844;2023-04-03T13:40:11;102115.16;;;12.30;49.70
62926;BME280;55732;52.248;-0.844;2023-04-03T13:42:39;102107.92;;;12.30;49.07
62926;BME280;55732;52.248;-0.844;2023-04-03T13:45:25;102104.24;;;12.31;48.55
62926;BME280;55732;52.248;-0.844;2023-04-03T13:48:18;102088.88;;;12.43;48.67
62926;BME280;55732;52.248;-0.844;2023-04-03T13:51:00;102089.55;;;12.63;48.61
62926;BME280;55732;52.248;-0.844;2023-04-03T13:53:27;102085.15;;;12.77;48.28
62926;BME280;55732;52.248;-0.844;2023-04-03T13:58:30;102082.91;;;12.69;48.64
62926;BME280;55732;52.248;-0.844;2023-04-03T14:01:19;102079.55;;;12.68;48.32
62926;BME280;55732;52.248;-0.844;2023-04-03T14:04:09;102080.74;;;12.53;48.36
62926;BME280;55732;52.248;-0.844;2023-04-03T14:06:35;102074.94;;;12.43;48.87
62926;BME280;55732;52.248;-0.844;2023-04-03T14:09:01;102067.86;;;12.43;49.37
62926;BME280;55732;52.248;-0.844;2023-04-03T14:11:29;102065.43;;;12.45;49.24
62926;BME280;55732;52.248;-0.844;2023-04-03T14:13:58;102058.61;;;12.50;49.15
62926;BME280;55732;52.248;-0.844;2023-04-03T14:16:27;102058.63;;;12.51;48.79
62926;BME280;55732;52.248;-0.844;2023-04-03T14:18:54;102062.86;;;12.51;48.67
62926;BME280;55732;52.248;-0.844;2023-04-03T14:21:20;102060.88;;;12.60;49.02
62926;BME280;55732;52.248;-0.844;2023-04-03T14:23:46;102061.85;;;12.67;47.98
62926;BME280;55732;52.248;-0.844;2023-04-03T14:26:14;102060.40;;;12.64;47.19
62926;BME280;55732;52.248;-0.844;2023-04-03T14:28:49;102060.42;;;12.54;47.36
62926;BME280;55732;52.248;-0.844;2023-04-03T14:31:15;102059.55;;;12.42;47.56
62926;BME280;55732;52.248;-0.844;2023-04-03T14:33:41;102056.52;;;12.41;48.33
62926;BME280;55732;52.248;-0.844;2023-04-03T14:36:20;102049.40;;;12.47;48.67
62926;BME280;55732;52.248;-0.844;2023-04-03T14:38:47;102047.36;;;12.54;48.34
62926;BME280;55732;52.248;-0.844;2023-04-03T14:41:15;102048.48;;;12.58;48.35
62926;BME280;55732;52.248;-0.844;2023-04-03T14:43:41;102049.95;;;12.61;48.16
62926;BME280;55732;52.248;-0.844;2023-04-03T14:46:16;102046.24;;;12.63;47.88
62926;BME280;55732;52.248;-0.844;2023-04-03T14:48:42;102044.48;;;12.64;47.35
62926;BME280;55732;52.248;-0.844;2023-04-03T14:51:11;102042.19;;;12.63;47.33
62926;BME280;55732;52.248;-0.844;2023-04-03T14:53:37;102042.54;;;12.62;47.51
62926;BME280;55732;52.248;-0.844;2023-04-03T14:56:10;102039.70;;;12.63;46.67